Flight Track Log - Related Links

Times and Time Zones

All times are in EDT time to prevent confusion due to time zone crossing. See the N143DE flight status page for this flight to view local times or setup timezone preferences in your user account.

Time Position Orientation Groundspeed Altitude Reporting Facility
EDT Latitude Longitude Course Direction KTS MPH feet Rate Location/Type
Wed 07:03:12 PM 34.0167 -84.6333 270° West 144 166 2,700  Level Atlanta TRACON
Wed 07:04:13 PM 34.0167 -84.6833 270° West 180 207 4,400 1,240 Climbing Atlanta TRACON
Wed 07:05:13 PM 34.0167 -84.7500 270° West 187 215 5,200 800 Climbing Atlanta TRACON
Wed 07:06:13 PM 33.9667 -84.8000 220° Southwest 182 209 6,000 432 Climbing Atlanta TRACON
Wed 07:07:18 PM 33.9333 -84.8500 231° Southwest 205 236 6,100 238 Climbing Atlanta TRACON
Wed 07:07:54 PM 33.9103 -84.8797 227° Southwest 198 228 6,400 1,500 Climbing Atlanta Center
Wed 07:08:54 PM 33.8747 -84.9219 225° Southwest 179 206 8,500 1,350 Climbing Atlanta Center
Wed 07:09:54 PM 33.8389 -84.9667 226° Southwest 179 206 9,100 850 Climbing Atlanta Center
Wed 07:10:54 PM 33.8175 -85.0314 248° West 200 230 10,200 1,000 Climbing Atlanta Center
Wed 07:11:54 PM 33.8064 -85.0964 258° West 205 236 11,100 450 Climbing Atlanta Center
Wed 07:12:54 PM 33.8078 -85.1689 271° West 217 250 11,100  Level Atlanta Center
Wed 07:13:54 PM 33.8114 -85.2464 273° West 228 262 11,100 3,450 Level Atlanta Center
Wed 07:14:54 PM 33.8128 -85.3114 271° West 228 262 18,000 3,450 Climbing Atlanta Center
Wed 07:15:54 PM 33.8100 -85.3639 266° West 188 216 18,000  Level Atlanta Center
Wed 07:16:54 PM 33.8094 -85.4189 269° West 166 191 18,000  Level Atlanta Center
Wed 07:17:54 PM 33.8108 -85.4739 272° West 166 191 18,000  Level Atlanta Center
Wed 07:18:54 PM 33.8103 -85.5289 269° West 166 191 18,000 50 Level Atlanta Center
Wed 07:19:54 PM 33.8094 -85.5914 269° West 177 204 18,100 50 Climbing Atlanta Center
Wed 07:20:54 PM 33.8086 -85.6639 269° West 189 217 18,100  Level Atlanta Center
Wed 07:21:54 PM 33.8078 -85.7314 269° West 202 232 18,100 -50 Level Atlanta Center
Wed 07:22:54 PM 33.8089 -85.8014 271° West 202 232 18,000 -50 Descending Atlanta Center
Wed 07:23:54 PM 33.8439 -85.8294 326° Northwest 167 192 18,000  Level Atlanta Center
Wed 07:24:54 PM 33.9003 -85.8208 North 146 168 18,000  Level Atlanta Center
Wed 07:25:54 PM 33.9589 -85.8169 North 172 198 18,000  Level Atlanta Center
Wed 07:26:54 PM 34.0153 -85.8156 North 195 224 18,000  Level Atlanta Center
Wed 07:27:54 PM 34.0758 -85.8119 North 205 236 18,000  Level Atlanta Center
Wed 07:28:54 PM 34.1322 -85.8106 North 205 236 18,000  Level Atlanta Center
Wed 07:29:54 PM 34.1947 -85.8094 North 213 245 18,000 50 Level Atlanta Center
Wed 07:30:54 PM 34.2575 -85.8081 North 225 259 18,100  Climbing Atlanta Center
Wed 07:31:54 PM 34.3244 -85.8019 North 230 265 18,000  Descending Atlanta Center
Wed 07:32:54 PM 34.3994 -85.7986 North 238 274 18,100  Climbing Atlanta Center
Wed 07:33:54 PM 34.4725 -85.7950 North 244 281 18,000 -50 Descending Atlanta Center
Wed 07:34:54 PM 34.5414 -85.7939 North 244 281 18,000  Level Atlanta Center
Wed 07:35:54 PM 34.6003 -85.7725 17° North 229 264 18,000  Level Atlanta Center
Wed 07:36:54 PM 34.5867 -85.6989 103° East 153 176 18,000  Level Atlanta Center
Wed 07:37:54 PM 34.5542 -85.6303 120° Southeast 177 204 18,000 -350 Level Atlanta Center
Wed 07:38:54 PM 34.5197 -85.5539 119° Southeast 215 247 17,300 -900 Descending Atlanta Center
Wed 07:39:54 PM 34.4831 -85.4728 119° Southeast 244 281 16,200 -1,050 Descending Atlanta Center
Wed 07:40:54 PM 34.4442 -85.3914 120° Southeast 266 306 15,200 -1,100 Descending Atlanta Center
Wed 07:41:54 PM 34.4056 -85.3103 120° Southeast 278 320 14,000 -1,200 Descending Atlanta Center
Wed 07:42:54 PM 34.3667 -85.2217 118° Southeast 278 320 12,800 2,000 Descending Atlanta Center
Wed 07:43:54 PM 34.3236 -85.1353 121° Southeast 283 326 18,000 -1,900 Climbing Atlanta Center
Wed 07:44:54 PM 34.2889 -85.0594 119° Southeast 293 337 9,000 -5,000 Descending Atlanta Center
Wed 07:45:54 PM 34.2539 -84.9811 118° Southeast 281 323 8,000 -500 Descending Atlanta Center
Wed 07:46:54 PM 34.2211 -84.9156 121° Southeast 241 277 8,000  Level Atlanta Center
Wed 07:47:54 PM 34.1836 -84.8925 153° Southeast 202 232 8,000  Level Atlanta Center
Wed 07:48:54 PM 34.1750 -84.9503 260° West 120 138 8,000 50 Level Atlanta Center
Wed 07:49:54 PM 34.1683 -85.0078 262° West 154 177 8,100 50 Climbing Atlanta Center
Wed 07:50:54 PM 34.1825 -85.0658 286° West 174 200 8,100 100 Level Atlanta Center
Wed 07:51:54 PM 34.1986 -85.1264 288° West 180 207 8,300 550 Climbing Atlanta Center
Wed 07:52:54 PM 34.2128 -85.1767 289° West 173 199 9,200 1,200 Climbing Atlanta Center
Wed 07:53:54 PM 34.2289 -85.2347 289° West 168 193 10,700 1,500 Climbing Atlanta Center
Wed 07:54:54 PM 34.2428 -85.2953 286° West 184 212 12,200 3,650 Climbing Atlanta Center
Wed 07:55:54 PM 34.2589 -85.3533 289° West 189 217 18,000 1,800 Climbing Atlanta Center
Wed 07:56:54 PM 34.2689 -85.4061 283° West 169 194 15,800 -350 Descending Atlanta Center
Wed 07:57:54 PM 34.2808 -85.4567 286° West 163 188 17,300 1,100 Climbing Atlanta Center
Wed 07:58:54 PM 34.2969 -85.5097 290° West 163 188 18,000  Climbing Atlanta Center
Wed 07:59:54 PM 34.3344 -85.5003 12° North 144 166 17,300 -1,200 Descending Atlanta Center
Wed 08:00:54 PM 34.3106 -85.4169 109° East 151 174 15,600 -1,500 Descending Atlanta Center
Wed 08:01:54 PM 34.2883 -85.3436 110° East 194 223 14,300 1,200 Descending Atlanta Center
Wed 08:02:54 PM 34.2622 -85.2478 108° East 270 311 18,000 1,850 Climbing Atlanta Center
Wed 08:03:54 PM 34.2483 -85.1519 100° East 291 335 18,000 -4,750 Level Atlanta Center
Wed 08:04:54 PM 34.2367 -85.0564 98° East 296 341 8,500 -4,950 Descending Atlanta Center
Wed 08:05:54 PM 34.2167 -84.9683 105° East 275 316 8,100 -200 Descending Atlanta Center
Wed 08:06:54 PM 34.2006 -84.8878 104° East 251 289 8,100  Level Atlanta Center
Wed 08:08:00 PM 34.1586 -84.8225 144° Southeast  Level Estimated
Wed 08:15:00 PM 34.0132 -84.5971 149° Southeast  Level Estimated
Wed 08:16:00 PM 34.0132 -84.5971 161° South  Level Estimated
Wed 08:17:00 PM 34.0132 -84.5971 161° South  Level Estimated
Wed 08:18:00 PM 34.0132 -84.5971 161° South  Level Estimated
Wed 08:19:00 PM 34.0132 -84.5971 346° North  Level Estimated
Wed 08:20:00 PM 34.0132 -84.5971 158° South  Level Estimated
Wed 08:21:00 PM 34.0132 -84.5971 158° South  Level Estimated
Wed 08:22:00 PM 34.0132 -84.5971 348° North  Level Estimated
Wed 08:23:00 PM 34.0132 -84.5971 337° Northwest  Level Estimated
Wed 08:24:00 PM 34.0132 -84.5971 337° Northwest  Level Estimated
Wed 08:25:00 PM 34.0132 -84.5971 337° Northwest  Level Estimated
Wed 08:26:00 PM 34.0132 -84.5971 337° Northwest  Level Estimated
Wed 08:27:00 PM 34.0132 -84.5971 337° Northwest  Level Estimated
Wed 08:28:00 PM 34.0132 -84.5971 337° Northwest  Level Estimated
Wed 08:29:00 PM 34.0132 -84.5971 337° Northwest  Level Estimated
Wed 08:30:00 PM 34.0132 -84.5971 337° Northwest  Level Estimated
Wed 08:31:00 PM 34.0132 -84.5971 337° Northwest  Level Estimated
Wed 08:32:00 PM 34.0132 -84.5971 337° Northwest  Level Estimated
Wed 08:33:00 PM 34.0132 -84.5971 337° Northwest  Level Estimated
Wed 08:34:00 PM 34.0132 -84.5971 337° Northwest  Level Estimated
Wed 08:35:00 PM 34.0132 -84.5971 337° Northwest  Level Estimated
Wed 08:36:00 PM 34.0132 -84.5971 337° Northwest  Level Estimated
Wed 08:37:00 PM 34.0132 -84.5971 337° Northwest  Level Estimated
Wed 08:38:00 PM 34.0132 -84.5971 337° Northwest  Level Estimated
Wed 08:39:00 PM 34.0132 -84.5971 337° Northwest  Level Estimated

Login

Don't have an account? Register now (free) for customized features, flight alerts, and more!